createdAt,value
2022-10-19T00:00:50.868Z,13.0
2022-10-19T00:02:50.788Z,13.0
2022-10-19T00:04:49.993Z,13.0
2022-10-19T00:06:50.285Z,13.0
2022-10-19T00:08:50.313Z,12.9
2022-10-19T00:10:50.321Z,12.9
2022-10-19T00:12:50.274Z,12.8
2022-10-19T00:14:50.479Z,12.8
2022-10-19T00:16:50.726Z,12.8
2022-10-19T00:18:50.680Z,12.7
2022-10-19T00:20:50.721Z,12.7
2022-10-19T00:22:50.642Z,12.6
2022-10-19T00:24:50.835Z,12.6
2022-10-19T00:26:50.004Z,12.6
2022-10-19T00:28:50.335Z,12.6
2022-10-19T00:30:50.490Z,12.6
2022-10-19T00:32:50.571Z,12.6
2022-10-19T00:34:50.214Z,12.6
2022-10-19T00:36:50.384Z,12.5
2022-10-19T00:38:50.516Z,12.5
2022-10-19T00:40:50.541Z,12.5
2022-10-19T00:42:50.526Z,12.5
2022-10-19T00:44:50.511Z,12.5
2022-10-19T00:46:50.927Z,12.5
2022-10-19T00:48:50.922Z,12.5
2022-10-19T00:50:50.106Z,12.5
2022-10-19T00:52:50.160Z,12.5
2022-10-19T00:54:50.270Z,12.5
2022-10-19T00:56:50.676Z,12.5
2022-10-19T00:58:50.833Z,12.5
2022-10-19T01:00:50.930Z,12.5
2022-10-19T01:02:49.943Z,12.5
2022-10-19T01:04:50.143Z,12.5
2022-10-19T01:08:50.267Z,12.5
2022-10-19T01:10:50.134Z,12.5
2022-10-19T01:12:49.918Z,12.5
2022-10-19T01:14:49.930Z,12.5
2022-10-19T01:16:50.239Z,12.5
2022-10-19T01:18:50.176Z,12.5
2022-10-19T01:20:50.228Z,12.5
2022-10-19T01:22:50.229Z,12.5
2022-10-19T01:24:50.197Z,12.4
2022-10-19T01:26:50.708Z,12.4
2022-10-19T01:28:51.091Z,12.4
2022-10-19T01:30:50.073Z,12.4
2022-10-19T01:32:49.984Z,12.5
2022-10-19T01:34:50.482Z,12.4
2022-10-19T01:36:50.779Z,12.4
2022-10-19T01:38:50.700Z,12.4
2022-10-19T01:40:50.539Z,12.4
2022-10-19T01:42:50.652Z,12.4
2022-10-19T01:44:50.668Z,12.4
2022-10-19T01:46:50.763Z,12.4
2022-10-19T01:48:50.700Z,12.4
2022-10-19T01:50:50.696Z,12.4
2022-10-19T01:52:50.705Z,12.4
2022-10-19T01:54:50.640Z,12.3
2022-10-19T01:56:50.095Z,12.3
2022-10-19T01:58:50.177Z,12.3
2022-10-19T02:00:51.514Z,12.3
2022-10-19T02:02:50.733Z,12.3
2022-10-19T02:04:50.271Z,12.3
2022-10-19T02:06:50.488Z,12.3
2022-10-19T02:08:50.108Z,12.3
2022-10-19T02:10:50.160Z,12.3
2022-10-19T02:12:50.372Z,12.2
2022-10-19T02:14:50.792Z,12.2
2022-10-19T02:16:50.873Z,12.2
2022-10-19T02:18:50.810Z,12.2
2022-10-19T02:20:50.626Z,12.2
2022-10-19T02:22:50.750Z,12.2
2022-10-19T02:24:50.446Z,12.1
2022-10-19T02:26:50.585Z,12.1
2022-10-19T02:28:50.379Z,12.1
2022-10-19T02:30:50.740Z,12.0
2022-10-19T02:32:50.087Z,12.0
2022-10-19T02:34:50.015Z,12.0
2022-10-19T02:36:50.774Z,12.0
2022-10-19T02:38:50.257Z,12.0
2022-10-19T02:40:50.655Z,11.9
2022-10-19T02:42:49.952Z,11.9
2022-10-19T02:44:50.496Z,11.8
2022-10-19T02:46:50.166Z,11.8
2022-10-19T02:48:50.705Z,11.8
2022-10-19T02:50:50.076Z,11.8
2022-10-19T02:52:50.613Z,11.8
2022-10-19T02:54:50.007Z,11.8
2022-10-19T02:56:50.777Z,11.8
2022-10-19T02:58:50.229Z,11.8
2022-10-19T03:00:50.945Z,11.8
2022-10-19T03:02:50.470Z,11.8
2022-10-19T03:04:50.340Z,11.8
2022-10-19T03:06:50.057Z,11.8
2022-10-19T03:08:50.478Z,11.8
2022-10-19T03:10:50.827Z,11.8
2022-10-19T03:12:50.305Z,11.8
2022-10-19T03:14:50.723Z,11.8
2022-10-19T03:16:50.518Z,11.8
2022-10-19T03:18:49.917Z,11.7
2022-10-19T03:20:50.303Z,11.7
2022-10-19T03:22:51.019Z,11.8
2022-10-19T03:24:50.523Z,11.8
2022-10-19T03:26:50.267Z,11.8
2022-10-19T03:28:50.951Z,11.8
2022-10-19T03:30:50.403Z,11.8
2022-10-19T03:32:50.838Z,11.8
2022-10-19T03:34:50.707Z,11.8
2022-10-19T03:36:50.703Z,11.8
2022-10-19T03:38:50.111Z,11.8
2022-10-19T03:40:50.529Z,11.8
2022-10-19T03:42:49.950Z,11.8
2022-10-19T03:44:50.474Z,11.8
2022-10-19T03:46:50.329Z,11.8
2022-10-19T03:48:50.718Z,11.8
2022-10-19T03:50:50.089Z,11.8
2022-10-19T03:52:50.722Z,11.8
2022-10-19T03:54:50.161Z,11.8
2022-10-19T03:56:50.038Z,11.8
2022-10-19T03:58:50.372Z,11.8
2022-10-19T04:00:51.176Z,11.8
2022-10-19T04:02:50.628Z,11.8
2022-10-19T04:04:50.594Z,11.8
2022-10-19T04:06:50.404Z,11.8
2022-10-19T04:08:50.834Z,11.8
2022-10-19T04:10:50.168Z,11.8
2022-10-19T04:12:54.466Z,11.8
2022-10-19T04:14:58.348Z,11.8
2022-10-19T04:16:50.080Z,11.8
2022-10-19T04:18:50.440Z,11.8
2022-10-19T04:20:49.932Z,11.8
2022-10-19T04:22:50.487Z,11.8
2022-10-19T04:24:49.934Z,11.8
2022-10-19T04:26:50.736Z,11.8
2022-10-19T04:28:50.517Z,11.8
2022-10-19T04:30:50.208Z,11.8
2022-10-19T04:32:50.549Z,11.8
2022-10-19T04:34:50.474Z,11.7
2022-10-19T04:36:50.483Z,11.7
2022-10-19T04:38:49.946Z,11.7
2022-10-19T04:40:50.296Z,11.7
2022-10-19T04:42:50.752Z,11.6
2022-10-19T04:44:50.407Z,11.6
2022-10-19T04:46:50.179Z,11.5
2022-10-19T04:48:50.587Z,11.5
2022-10-19T04:50:50.040Z,11.5
2022-10-19T04:52:50.474Z,11.5
2022-10-19T04:54:50.055Z,11.4
2022-10-19T04:56:50.578Z,11.4
2022-10-19T04:58:50.086Z,11.4
2022-10-19T05:00:50.764Z,11.3
2022-10-19T05:02:50.262Z,11.3
2022-10-19T05:04:50.234Z,11.3
2022-10-19T05:06:50.147Z,11.2
2022-10-19T05:08:50.559Z,11.2
2022-10-19T05:10:49.941Z,11.2
2022-10-19T05:12:50.371Z,11.1
2022-10-19T05:14:50.813Z,11.1
2022-10-19T05:16:50.562Z,11.1
2022-10-19T05:18:49.981Z,11.1
2022-10-19T05:20:50.361Z,11.1
2022-10-19T05:22:50.899Z,11.1
2022-10-19T05:24:58.506Z,11.1
2022-10-19T05:26:50.460Z,11.1
2022-10-19T05:28:51.138Z,11.0
2022-10-19T05:30:50.695Z,11.0
2022-10-19T05:32:50.023Z,11.0
2022-10-19T05:34:50.027Z,11.0
2022-10-19T05:36:50.819Z,11.0
2022-10-19T05:38:50.364Z,11.0
2022-10-19T05:40:54.145Z,11.0
2022-10-19T05:42:50.603Z,10.9
2022-10-19T05:44:50.077Z,10.9
2022-10-19T05:46:50.784Z,10.9
2022-10-19T05:48:50.147Z,10.9
2022-10-19T05:50:50.569Z,10.9
2022-10-19T05:52:50.916Z,10.9
2022-10-19T05:54:50.556Z,10.9
2022-10-19T05:56:50.286Z,10.9
2022-10-19T05:58:50.706Z,10.9
2022-10-19T06:00:50.146Z,10.9
2022-10-19T06:02:50.653Z,10.9
2022-10-19T06:04:50.573Z,10.9
2022-10-19T06:06:50.411Z,10.9
2022-10-19T06:08:50.830Z,10.9
2022-10-19T06:10:50.198Z,11.0
2022-10-19T06:12:50.578Z,11.0
2022-10-19T06:14:50.122Z,11.0
2022-10-19T06:16:50.074Z,11.0
2022-10-19T06:18:50.434Z,11.0
2022-10-19T06:20:50.895Z,11.0
2022-10-19T06:22:50.327Z,11.0
2022-10-19T06:24:50.762Z,11.0
2022-10-19T06:26:50.598Z,11.0
2022-10-19T06:28:50.109Z,11.1
2022-10-19T06:30:50.940Z,11.1
2022-10-19T06:32:51.135Z,11.1
2022-10-19T06:34:56.973Z,11.1
2022-10-19T06:36:50.908Z,11.2
2022-10-19T06:38:50.832Z,11.2
2022-10-19T06:40:50.348Z,11.2
2022-10-19T06:42:50.770Z,11.2
2022-10-19T06:44:50.310Z,11.3
2022-10-19T06:46:50.080Z,11.4
2022-10-19T06:48:50.576Z,11.4
2022-10-19T06:50:50.552Z,11.4
2022-10-19T06:52:50.044Z,11.4
2022-10-19T06:54:50.396Z,11.4
2022-10-19T06:58:50.617Z,11.4
2022-10-19T07:00:50.290Z,11.4
2022-10-19T07:02:50.687Z,11.4
2022-10-19T07:04:50.730Z,11.4
2022-10-19T07:06:50.475Z,11.4
2022-10-19T07:08:49.985Z,11.4
2022-10-19T07:10:50.497Z,11.4
2022-10-19T07:12:50.047Z,11.4
2022-10-19T07:14:50.520Z,11.4
2022-10-19T07:16:50.900Z,11.4
2022-10-19T07:18:50.186Z,11.4
2022-10-19T07:20:50.620Z,11.4
2022-10-19T07:22:50.088Z,11.4
2022-10-19T07:24:50.466Z,11.4
2022-10-19T07:26:50.144Z,11.4
2022-10-19T07:28:50.472Z,11.4
2022-10-19T07:30:50.894Z,11.4
2022-10-19T07:32:50.336Z,11.4
2022-10-19T07:34:50.170Z,11.4
2022-10-19T07:36:49.944Z,11.4
2022-10-19T07:38:50.425Z,11.4
2022-10-19T07:40:50.331Z,11.4
2022-10-19T07:42:50.054Z,11.4
2022-10-19T07:44:50.622Z,11.4
2022-10-19T07:46:50.513Z,11.4
2022-10-19T07:48:50.873Z,11.3
2022-10-19T07:50:50.380Z,11.3
2022-10-19T07:52:50.784Z,11.4
2022-10-19T07:54:50.370Z,11.4
2022-10-19T07:56:50.919Z,11.4
2022-10-19T07:58:50.430Z,11.4
2022-10-19T08:00:49.957Z,11.4
2022-10-19T08:05:11.373Z,11.5
2022-10-19T08:06:50.695Z,11.5
2022-10-19T08:08:50.468Z,11.5
2022-10-19T08:10:50.058Z,11.6
2022-10-19T08:12:50.473Z,11.6
2022-10-19T08:14:49.969Z,11.6
2022-10-19T08:16:50.687Z,11.6
2022-10-19T08:18:50.201Z,11.6
2022-10-19T08:20:50.646Z,11.7
2022-10-19T08:22:55.017Z,11.7
2022-10-19T08:24:50.637Z,11.6
2022-10-19T08:26:50.381Z,11.6
2022-10-19T08:28:49.945Z,11.7
2022-10-19T08:30:50.701Z,11.7
2022-10-19T08:32:50.541Z,11.8
2022-10-19T08:34:50.158Z,11.8
2022-10-19T08:36:50.249Z,11.7
2022-10-19T08:38:51.008Z,11.7
2022-10-19T08:40:49.970Z,11.8
2022-10-19T08:42:50.811Z,11.8
2022-10-19T08:44:50.298Z,11.8
2022-10-19T08:46:50.041Z,11.8
2022-10-19T08:48:50.533Z,11.9
2022-10-19T08:50:50.007Z,11.9
2022-10-19T08:52:50.881Z,12.0
2022-10-19T08:54:50.697Z,12.0
2022-10-19T08:56:52.495Z,12.0
2022-10-19T08:58:50.203Z,12.0
2022-10-19T09:00:50.875Z,12.2
2022-10-19T09:02:50.421Z,12.2
2022-10-19T09:04:50.610Z,12.2
2022-10-19T09:06:50.649Z,12.2
2022-10-19T09:08:50.558Z,12.2
2022-10-19T09:10:50.486Z,12.3
2022-10-19T09:12:58.937Z,12.3
2022-10-19T09:14:50.392Z,12.3
2022-10-19T09:16:50.303Z,12.4
2022-10-19T09:18:51.419Z,12.4
2022-10-19T09:20:50.193Z,12.5
2022-10-19T09:22:50.766Z,12.6
2022-10-19T09:24:50.408Z,12.6
2022-10-19T09:26:50.335Z,12.6
2022-10-19T09:28:50.745Z,12.7
2022-10-19T09:30:50.242Z,12.8
2022-10-19T09:32:50.642Z,12.9
2022-10-19T09:34:50.565Z,12.9
2022-10-19T09:36:51.526Z,13.0
2022-10-19T09:38:50.032Z,13.0
2022-10-19T09:40:50.586Z,13.1
2022-10-19T09:42:50.070Z,13.1
2022-10-19T09:44:50.515Z,13.2
2022-10-19T09:46:50.441Z,13.3
2022-10-19T09:48:50.016Z,13.3
2022-10-19T09:50:50.481Z,13.4
2022-10-19T09:52:50.140Z,13.4
2022-10-19T09:54:50.676Z,13.4
2022-10-19T09:56:50.569Z,13.4
2022-10-19T09:58:50.017Z,13.5
2022-10-19T10:00:50.523Z,13.6
2022-10-19T10:02:50.152Z,13.6
2022-10-19T10:04:50.262Z,13.6
2022-10-19T10:06:50.187Z,13.7
2022-10-19T10:08:51.301Z,13.7
2022-10-19T10:10:50.869Z,13.8
2022-10-19T10:12:50.181Z,13.9
2022-10-19T10:14:50.895Z,13.9
2022-10-19T10:16:50.672Z,14.0
2022-10-19T10:18:50.331Z,14.1
2022-10-19T10:20:51.055Z,14.1
2022-10-19T10:22:50.677Z,14.1
2022-10-19T10:24:50.215Z,14.2
2022-10-19T10:26:50.145Z,14.2
2022-10-19T10:28:49.962Z,14.2
2022-10-19T10:30:50.494Z,14.2
2022-10-19T10:32:50.341Z,14.3
2022-10-19T10:35:01.896Z,14.3
2022-10-19T10:36:50.472Z,14.4
2022-10-19T10:38:50.527Z,14.5
2022-10-19T10:40:50.137Z,14.5
2022-10-19T10:42:50.685Z,14.6
2022-10-19T10:44:50.168Z,14.6
2022-10-19T10:46:50.033Z,14.7
2022-10-19T10:48:53.865Z,14.7
2022-10-19T10:50:50.415Z,14.7
2022-10-19T10:52:50.057Z,14.8
2022-10-19T10:54:50.552Z,15.0
2022-10-19T10:56:50.758Z,15.0
2022-10-19T10:58:50.009Z,15.0
2022-10-19T11:00:50.533Z,15.1
2022-10-19T11:02:50.214Z,15.3
2022-10-19T11:04:52.879Z,15.3
2022-10-19T11:06:50.736Z,15.3
2022-10-19T11:08:50.744Z,15.4
2022-10-19T11:10:50.711Z,15.4
2022-10-19T11:12:50.265Z,15.5
2022-10-19T11:14:50.736Z,15.6
2022-10-19T11:16:50.953Z,15.6
2022-10-19T11:18:50.749Z,15.7
2022-10-19T11:20:50.443Z,15.7
2022-10-19T11:22:50.817Z,15.8
2022-10-19T11:24:50.268Z,15.8
2022-10-19T11:26:50.078Z,15.8
2022-10-19T11:28:50.511Z,15.9
2022-10-19T11:30:51.162Z,15.9
2022-10-19T11:32:50.581Z,16.0
2022-10-19T11:34:50.532Z,16.0
2022-10-19T11:36:50.547Z,16.0
2022-10-19T11:38:50.047Z,16.2
2022-10-19T11:41:18.771Z,16.1
2022-10-19T11:42:50.480Z,16.2
2022-10-19T11:44:50.053Z,16.2
2022-10-19T11:46:50.844Z,16.3
2022-10-19T11:48:55.390Z,16.5
2022-10-19T11:51:21.543Z,16.6
2022-10-19T11:52:50.334Z,16.6
2022-10-19T11:54:50.886Z,16.8
2022-10-19T11:57:11.809Z,16.8
2022-10-19T11:58:50.044Z,16.9
2022-10-19T12:00:50.385Z,16.9
2022-10-19T12:02:49.994Z,16.9
2022-10-19T12:04:50.414Z,16.9
2022-10-19T12:06:50.262Z,16.9
2022-10-19T12:08:56.971Z,16.8
2022-10-19T12:10:50.519Z,16.8
2022-10-19T12:12:49.976Z,16.8
2022-10-19T12:14:50.621Z,16.8
2022-10-19T12:16:50.631Z,16.8
2022-10-19T12:18:50.312Z,16.8
2022-10-19T12:20:50.830Z,16.8
2022-10-19T12:22:50.256Z,16.8
2022-10-19T12:24:50.774Z,16.7
2022-10-19T12:26:50.633Z,16.8
2022-10-19T12:28:50.276Z,16.7
2022-10-19T12:30:50.743Z,16.7
2022-10-19T12:32:54.797Z,16.7
2022-10-19T12:34:50.847Z,16.7
2022-10-19T12:36:50.815Z,16.8
2022-10-19T12:39:00.796Z,16.8
2022-10-19T12:40:50.510Z,16.9
2022-10-19T12:42:50.061Z,16.9
2022-10-19T12:44:59.145Z,17.0
2022-10-19T12:47:01.116Z,17.2
2022-10-19T12:48:50.702Z,17.2
2022-10-19T12:50:50.410Z,17.3
2022-10-19T12:52:50.106Z,17.3
2022-10-19T12:54:50.555Z,17.4
2022-10-19T12:56:50.242Z,17.4
2022-10-19T12:58:51.042Z,17.4
2022-10-19T13:00:50.769Z,17.4
2022-10-19T13:02:50.458Z,17.4
2022-10-19T13:04:50.534Z,17.4
2022-10-19T13:06:50.891Z,17.4
2022-10-19T13:08:51.116Z,17.4
2022-10-19T13:10:51.035Z,17.4
2022-10-19T13:12:50.518Z,17.3
2022-10-19T13:14:50.038Z,17.3
2022-10-19T13:16:50.956Z,17.3
2022-10-19T13:18:50.595Z,17.3
2022-10-19T13:20:50.264Z,17.3
2022-10-19T13:22:50.149Z,17.4
2022-10-19T13:24:51.066Z,17.4
2022-10-19T13:26:50.841Z,17.4
2022-10-19T13:28:50.257Z,17.4
2022-10-19T13:30:51.185Z,17.4
2022-10-19T13:32:50.626Z,17.4
2022-10-19T13:34:50.484Z,17.3
2022-10-19T13:36:50.292Z,17.3
2022-10-19T13:38:50.826Z,17.3
2022-10-19T13:40:50.321Z,17.2
2022-10-19T13:44:50.401Z,17.2
2022-10-19T13:46:50.246Z,17.1
2022-10-19T13:48:50.940Z,17.1
2022-10-19T13:50:50.499Z,17.0
2022-10-19T13:52:50.019Z,17.0
2022-10-19T13:54:50.437Z,16.8
2022-10-19T13:56:50.316Z,16.8
2022-10-19T13:58:50.838Z,16.8
2022-10-19T14:00:50.266Z,16.7
2022-10-19T14:02:50.931Z,16.6
2022-10-19T14:04:50.035Z,16.6
2022-10-19T14:06:49.907Z,16.6
2022-10-19T14:08:50.670Z,16.6
2022-10-19T14:11:01.902Z,16.5
2022-10-19T14:12:50.097Z,16.5
2022-10-19T14:14:50.511Z,16.5
2022-10-19T14:16:50.499Z,16.4
2022-10-19T14:18:49.978Z,16.4
2022-10-19T14:20:51.287Z,16.4
2022-10-19T14:22:50.752Z,16.4
2022-10-19T14:24:50.206Z,16.4
2022-10-19T14:26:50.079Z,16.4
2022-10-19T14:28:50.703Z,16.5
2022-10-19T14:30:50.325Z,16.5
2022-10-19T14:32:50.814Z,16.5
2022-10-19T14:34:51.165Z,16.5
2022-10-19T14:36:50.107Z,16.5
2022-10-19T14:38:50.456Z,16.5
2022-10-19T14:40:49.938Z,16.5
2022-10-19T14:42:50.373Z,16.4
2022-10-19T14:44:50.886Z,16.4
2022-10-19T14:46:50.624Z,16.4
2022-10-19T14:48:50.143Z,16.4
2022-10-19T14:50:50.565Z,16.4
2022-10-19T14:52:50.148Z,16.4
2022-10-19T14:54:50.594Z,16.3
2022-10-19T14:56:50.416Z,16.2
2022-10-19T14:58:50.847Z,16.2
2022-10-19T15:00:50.370Z,16.2
2022-10-19T15:02:50.802Z,16.2
2022-10-19T15:04:50.844Z,16.2
2022-10-19T15:06:50.707Z,16.2
2022-10-19T15:08:50.846Z,16.1
2022-10-19T15:10:50.626Z,16.1
2022-10-19T15:12:50.099Z,16.1
2022-10-19T15:14:50.565Z,16.0
2022-10-19T15:16:50.345Z,16.0
2022-10-19T15:18:51.421Z,16.0
2022-10-19T15:21:12.392Z,15.9
2022-10-19T15:22:50.043Z,15.9
2022-10-19T15:24:50.882Z,15.9
2022-10-19T15:27:09.766Z,15.8
2022-10-19T15:28:49.995Z,15.8
2022-10-19T15:30:50.996Z,15.8
2022-10-19T15:32:50.633Z,15.8
2022-10-19T15:34:50.739Z,15.7
2022-10-19T15:36:50.454Z,15.7
2022-10-19T15:38:50.075Z,15.7
2022-10-19T15:40:50.540Z,15.6
2022-10-19T15:42:50.130Z,15.6
2022-10-19T15:44:50.616Z,15.5
2022-10-19T15:46:50.349Z,15.4
2022-10-19T15:48:55.900Z,15.4
2022-10-19T15:50:50.360Z,15.4
2022-10-19T15:52:50.810Z,15.4
2022-10-19T15:54:50.293Z,15.3
2022-10-19T15:56:50.047Z,15.2
2022-10-19T15:58:50.513Z,15.1
2022-10-19T16:00:49.964Z,15.0
2022-10-19T16:02:50.504Z,15.0
2022-10-19T16:04:50.453Z,14.9
2022-10-19T16:06:50.386Z,14.9
2022-10-19T16:08:51.223Z,14.9
2022-10-19T16:10:50.003Z,14.7
2022-10-19T16:12:50.434Z,14.6
2022-10-19T16:14:50.853Z,14.6
2022-10-19T16:16:50.928Z,14.4
2022-10-19T16:18:50.522Z,14.4
2022-10-19T16:20:50.257Z,14.3
2022-10-19T16:22:50.671Z,14.2
2022-10-19T16:24:50.400Z,14.2
2022-10-19T16:26:50.074Z,14.0
2022-10-19T16:28:50.711Z,14.0
2022-10-19T16:30:50.160Z,13.9
2022-10-19T16:32:50.535Z,13.8
2022-10-19T16:34:50.522Z,13.7
2022-10-19T16:36:50.701Z,13.6
2022-10-19T16:38:50.438Z,13.6
2022-10-19T16:40:49.939Z,13.5
2022-10-19T16:42:50.512Z,13.4
2022-10-19T16:44:49.968Z,13.3
2022-10-19T16:46:51.074Z,13.2
2022-10-19T16:48:50.554Z,13.2
2022-10-19T16:50:50.096Z,13.2
2022-10-19T16:52:50.630Z,13.1
2022-10-19T16:54:50.101Z,13.0
2022-10-19T16:56:50.448Z,13.0
2022-10-19T16:58:49.941Z,13.0
2022-10-19T17:00:50.586Z,13.0
2022-10-19T17:02:49.982Z,12.9
2022-10-19T17:04:49.979Z,12.9
2022-10-19T17:06:50.372Z,12.8
2022-10-19T17:09:40.606Z,12.7
2022-10-19T17:10:50.702Z,12.6
2022-10-19T17:12:50.190Z,12.5
2022-10-19T17:14:50.709Z,12.5
2022-10-19T17:16:50.577Z,12.4
2022-10-19T17:18:50.113Z,12.4
2022-10-19T17:20:51.123Z,12.3
2022-10-19T17:22:51.033Z,12.2
2022-10-19T17:24:50.597Z,12.2
2022-10-19T17:26:50.612Z,12.1
2022-10-19T17:28:50.200Z,12.0
2022-10-19T17:30:50.745Z,12.0
2022-10-19T17:32:50.236Z,12.0
2022-10-19T17:34:50.358Z,12.0
2022-10-19T17:36:50.998Z,11.9
2022-10-19T17:38:50.523Z,11.8
2022-10-19T17:40:50.093Z,11.8
2022-10-19T17:42:51.077Z,11.7
2022-10-19T17:44:50.659Z,11.7
2022-10-19T17:48:50.347Z,11.6
2022-10-19T17:50:50.046Z,11.6
2022-10-19T17:52:50.541Z,11.6
2022-10-19T17:55:13.427Z,11.5
2022-10-19T17:56:50.802Z,11.4
2022-10-19T17:58:50.420Z,11.4
2022-10-19T18:00:50.943Z,11.4
2022-10-19T18:02:50.940Z,11.4
2022-10-19T18:04:50.334Z,11.3
2022-10-19T18:06:50.424Z,11.3
2022-10-19T18:08:50.342Z,11.2
2022-10-19T18:10:50.913Z,11.2
2022-10-19T18:12:50.325Z,11.2
2022-10-19T18:14:50.903Z,11.1
2022-10-19T18:16:50.639Z,11.1
2022-10-19T18:18:50.201Z,11.0
2022-10-19T18:20:50.670Z,11.0
2022-10-19T18:22:50.178Z,11.0
2022-10-19T18:24:50.757Z,11.0
2022-10-19T18:26:50.710Z,10.9
2022-10-19T18:28:50.326Z,10.9
2022-10-19T18:30:50.828Z,10.8
2022-10-19T18:32:50.387Z,10.8
2022-10-19T18:34:50.387Z,10.8
2022-10-19T18:36:50.124Z,10.7
2022-10-19T18:38:50.602Z,10.7
2022-10-19T18:40:50.098Z,10.6
2022-10-19T18:42:50.584Z,10.6
2022-10-19T18:44:50.054Z,10.6
2022-10-19T18:46:49.947Z,10.6
2022-10-19T18:48:50.427Z,10.6
2022-10-19T18:50:50.169Z,10.5
2022-10-19T18:52:50.627Z,10.5
2022-10-19T18:54:50.076Z,10.5
2022-10-19T18:56:50.881Z,10.4
2022-10-19T18:58:50.444Z,10.4
2022-10-19T19:00:50.939Z,10.4
2022-10-19T19:02:52.032Z,10.4
2022-10-19T19:04:50.796Z,10.3
2022-10-19T19:06:50.807Z,10.2
2022-10-19T19:08:50.781Z,10.2
2022-10-19T19:10:50.495Z,10.2
2022-10-19T19:12:49.989Z,10.2
2022-10-19T19:14:50.669Z,10.1
2022-10-19T19:16:51.169Z,10.0
2022-10-19T19:18:50.771Z,10.0
2022-10-19T19:20:50.378Z,10.0
2022-10-19T19:22:50.021Z,9.9
2022-10-19T19:24:50.522Z,9.9
2022-10-19T19:26:50.300Z,9.9
2022-10-19T19:28:52.264Z,9.8
2022-10-19T19:30:50.786Z,9.8
2022-10-19T19:32:50.369Z,9.7
2022-10-19T19:34:55.306Z,9.6
2022-10-19T19:36:50.274Z,9.6
2022-10-19T19:38:50.808Z,9.6
2022-10-19T19:40:50.345Z,9.5
2022-10-19T19:42:50.032Z,9.5
2022-10-19T19:44:50.498Z,9.4
2022-10-19T19:46:50.246Z,9.4
2022-10-19T19:48:50.829Z,9.4
2022-10-19T19:50:50.279Z,9.3
2022-10-19T19:52:50.816Z,9.3
2022-10-19T19:54:50.510Z,9.3
2022-10-19T19:56:50.479Z,9.3
2022-10-19T19:58:49.983Z,9.2
2022-10-19T20:00:50.568Z,9.1
2022-10-19T20:02:50.191Z,9.1
2022-10-19T20:04:50.111Z,9.1
2022-10-19T20:06:50.898Z,9.0
2022-10-19T20:08:50.822Z,9.0
2022-10-19T20:10:50.320Z,9.0
2022-10-19T20:12:49.936Z,8.9
2022-10-19T20:14:50.332Z,8.9
2022-10-19T20:16:50.124Z,8.9
2022-10-19T20:18:50.645Z,8.9
2022-10-19T20:20:50.319Z,8.9
2022-10-19T20:22:49.928Z,8.9
2022-10-19T20:24:50.346Z,8.8
2022-10-19T20:26:50.085Z,8.8
2022-10-19T20:28:50.523Z,8.7
2022-10-19T20:30:50.148Z,8.7
2022-10-19T20:32:50.726Z,8.7
2022-10-19T20:34:50.787Z,8.7
2022-10-19T20:36:50.613Z,8.7
2022-10-19T20:38:50.246Z,8.6
2022-10-19T20:40:50.766Z,8.6
2022-10-19T20:42:50.366Z,8.5
2022-10-19T20:44:49.941Z,8.5
2022-10-19T20:46:50.715Z,8.4
2022-10-19T20:48:50.352Z,8.4
2022-10-19T20:50:51.326Z,8.4
2022-10-19T20:52:50.864Z,8.4
2022-10-19T20:54:50.312Z,8.4
2022-10-19T20:56:50.153Z,8.3
2022-10-19T20:58:51.007Z,8.3
2022-10-19T21:00:50.563Z,8.2
2022-10-19T21:02:50.172Z,8.2
2022-10-19T21:04:50.319Z,8.2
2022-10-19T21:06:50.130Z,8.1
2022-10-19T21:08:51.024Z,8.1
2022-10-19T21:10:50.528Z,8.0
2022-10-19T21:12:50.136Z,8.0
2022-10-19T21:14:50.636Z,8.0
2022-10-19T21:16:50.546Z,8.0
2022-10-19T21:18:50.016Z,7.9
2022-10-19T21:20:50.601Z,7.9
2022-10-19T21:22:50.036Z,7.9
2022-10-19T21:24:50.615Z,7.8
2022-10-19T21:28:49.991Z,7.8
2022-10-19T21:30:50.467Z,7.7
2022-10-19T21:32:49.974Z,7.7
2022-10-19T21:34:49.977Z,7.7
2022-10-19T21:36:50.795Z,7.7
2022-10-19T21:38:50.263Z,7.6
2022-10-19T21:40:50.668Z,7.6
2022-10-19T21:42:50.220Z,7.6
2022-10-19T21:46:50.600Z,7.6
2022-10-19T21:48:50.162Z,7.6
2022-10-19T21:50:50.576Z,7.6
2022-10-19T21:52:50.032Z,7.6
2022-10-19T21:54:50.617Z,7.6
2022-10-19T21:56:49.959Z,7.5
2022-10-19T21:58:50.372Z,7.5
2022-10-19T22:00:50.850Z,7.5
2022-10-19T22:02:50.282Z,7.5
2022-10-19T22:04:50.257Z,7.5
2022-10-19T22:06:50.107Z,7.5
2022-10-19T22:08:50.935Z,7.4
2022-10-19T22:10:50.507Z,7.4
2022-10-19T22:12:49.938Z,7.4
2022-10-19T22:14:50.496Z,7.4
2022-10-19T22:16:50.399Z,7.4
2022-10-19T22:18:50.006Z,7.4
2022-10-19T22:20:50.457Z,7.4
2022-10-19T22:22:55.319Z,7.3
2022-10-19T22:24:50.874Z,7.3
2022-10-19T22:26:51.052Z,7.3
2022-10-19T22:28:50.599Z,7.2
2022-10-19T22:30:50.121Z,7.2
2022-10-19T22:32:50.657Z,7.2
2022-10-19T22:34:49.951Z,7.2
2022-10-19T22:36:50.810Z,7.2
2022-10-19T22:38:50.544Z,7.1
2022-10-19T22:40:50.028Z,7.1
2022-10-19T22:42:50.524Z,7.1
2022-10-19T22:44:50.128Z,7.1
2022-10-19T22:46:49.941Z,7.1
2022-10-19T22:48:50.592Z,7.1
2022-10-19T22:50:50.235Z,7.1
2022-10-19T22:52:49.916Z,7.0
2022-10-19T22:54:50.380Z,7.0
2022-10-19T22:56:50.136Z,7.0
2022-10-19T22:58:50.630Z,7.0
2022-10-19T23:00:50.641Z,6.9
2022-10-19T23:02:50.168Z,6.9
2022-10-19T23:04:50.176Z,6.9
2022-10-19T23:06:50.069Z,6.9
2022-10-19T23:08:50.780Z,6.9
2022-10-19T23:10:50.271Z,6.8
2022-10-19T23:12:50.765Z,6.8
2022-10-19T23:14:50.235Z,6.8
2022-10-19T23:16:50.112Z,6.8
2022-10-19T23:18:50.631Z,6.8
2022-10-19T23:20:50.211Z,6.7
2022-10-19T23:22:50.728Z,6.7
2022-10-19T23:24:50.375Z,6.8
2022-10-19T23:26:50.262Z,6.8
2022-10-19T23:28:50.774Z,6.7
2022-10-19T23:30:50.258Z,6.7
2022-10-19T23:32:50.709Z,6.7
2022-10-19T23:34:50.727Z,6.7
2022-10-19T23:36:50.655Z,6.7
2022-10-19T23:38:50.153Z,6.7
2022-10-19T23:40:50.655Z,6.7
2022-10-19T23:42:50.109Z,6.6
2022-10-19T23:44:50.754Z,6.6
2022-10-19T23:46:50.543Z,6.6
2022-10-19T23:48:50.120Z,6.6
2022-10-19T23:50:50.701Z,6.5
2022-10-19T23:52:50.258Z,6.5
2022-10-19T23:54:50.825Z,6.5
2022-10-19T23:56:51.502Z,6.5
2022-10-19T23:58:50.147Z,6.5
